Terminal Aerodrome Forecast
Issued by NWS Blacksburg, VA

Home | Current Version | Previous Version | Text Only | Print | Product List | Glossary On
Versions: 1 2 3 4 5 6 7 8 9 10 11 12 13 14 15 16 17 18 19 20 21 22 23 24 25 26 27 28 29 30 31 32 33 34
000
FTUS41 KRNK 251139
TAFLYH
TAF
KLYH 251139Z 2512/2612 23005KT P6SM SCT045
     FM251700 21006KT P6SM BKN250
     FM252300 16004KT P6SM OVC100
     FM260300 14004KT P6SM OVC020
     FM260700 08003KT 2SM -RA BR OVC009=

USA.gov is the U.S. government's official web portal to all federal, state and local government web resources and services.